createdAt,value
2018-08-10T13:32:30.109Z,31
2018-08-10T13:41:28.308Z,31
2018-08-10T13:51:27.395Z,32
2018-08-10T14:01:28.274Z,30
2018-08-10T14:11:26.756Z,29
2018-08-10T14:21:26.963Z,28
2018-08-10T14:31:26.969Z,27
2018-08-10T14:41:28.279Z,26
2018-08-10T14:51:27.011Z,25
2018-08-10T15:01:27.550Z,25
2018-08-10T15:11:27.102Z,26
2018-08-10T15:21:27.188Z,26
2018-08-10T15:31:43.728Z,26
2018-08-10T15:41:27.200Z,26
2018-08-10T15:51:27.259Z,26
2018-08-10T16:01:26.546Z,26
2018-08-10T16:11:26.407Z,26
2018-08-10T16:21:26.434Z,26
2018-08-10T16:41:29.358Z,26
2018-08-10T16:51:26.289Z,26
2018-08-10T17:01:28.520Z,26
2018-08-10T17:11:26.433Z,26
2018-08-10T17:21:27.616Z,26
2018-08-10T17:31:26.842Z,26
2018-08-10T17:41:26.788Z,26
2018-08-10T17:51:27.614Z,26
2018-08-10T18:01:26.470Z,26
2018-08-10T18:11:27.607Z,25
2018-08-10T18:21:27.392Z,26
2018-08-10T18:31:31.738Z,25
2018-08-10T18:41:27.706Z,25
2018-08-10T18:51:27.231Z,25
2018-08-10T19:01:28.263Z,25
2018-08-10T19:11:27.068Z,25
2018-08-10T19:21:27.871Z,25
2018-08-10T19:31:27.418Z,25
2018-08-10T19:41:26.647Z,24
2018-08-10T19:51:28.021Z,24
2018-08-10T20:01:28.400Z,24
2018-08-10T20:11:31.774Z,24
2018-08-10T20:21:27.177Z,24
2018-08-10T20:31:29.792Z,24
2018-08-10T20:41:26.903Z,23
2018-08-10T20:51:28.151Z,23
2018-08-10T21:01:28.524Z,24
2018-08-10T21:11:27.704Z,23
2018-08-10T21:21:27.035Z,23
2018-08-10T21:31:26.934Z,23
2018-08-10T21:41:29.238Z,23
2018-08-10T21:51:27.119Z,24
2018-08-10T22:01:26.970Z,23
2018-08-10T22:11:28.733Z,23
2018-08-10T22:21:27.138Z,23
2018-08-10T22:31:27.033Z,22
2018-08-10T22:41:28.124Z,22
2018-08-10T22:51:28.616Z,23
2018-08-10T23:01:27.426Z,23
2018-08-10T23:11:26.300Z,23
2018-08-10T23:21:28.378Z,22
2018-08-10T23:31:26.201Z,22
2018-08-10T23:41:27.048Z,22
2018-08-10T23:51:27.234Z,22
